Time;durP1;ratioP1;P1;durP2;ratioP2;P2;SDS_P1;SDS_P2;PMS_P1;PMS_P2;Temp;Humidity;BMP_temperature;BMP_pressure;BME280_temperature;BME280_humidity;BME280_pressure;Samples;Min_cycle;Max_cycle;Signal;HPM_P1;HPM_P2
2023/10/19 00:47:18;;;;;;;;;;;;;;;12.36;87.93;98225.28;1088829;46;1634;-78
2023/10/19 00:48:26;;;;;;;;;;;;;;;12.29;88.26;98226.06;1087322;54;1015;-79
2023/10/19 00:49:38;;;;;;;;;;;;;;;12.29;88.07;98231.44;1086228;54;1111;-79
2023/10/19 00:50:52;;;;;;;;;;;;;;;12.24;88.95;98219.66;1086051;47;1380;-77
2023/10/19 00:52:19;;;;;;;;;;;;;;;12.24;88.15;98223.19;1086235;54;1175;-78
2023/10/19 00:53:22;;;;;;;;;;;;;;;12.30;88.58;98222.38;1087354;54;1152;-81
2023/10/19 00:54:32;;;;;;;;;;;;;;;12.32;87.98;98220.31;1086571;46;1122;-79
2023/10/19 00:55:34;;;;;;;;;;;;;;;12.32;88.28;98217.63;1087922;54;1410;-81
2023/10/19 00:57:04;;;;;;;;;;;;;;;12.36;88.31;98220.75;1088927;46;1104;-82
2023/10/19 01:49:34;;;;;;;;;;;;;;;12.73;88.73;98164.13;1088281;54;1272;-79
2023/10/19 01:50:45;;;;;;;;;;;;;;;12.73;88.67;98164.13;1088545;54;1055;-80
2023/10/19 01:51:47;;;;;;;;;;;;;;;12.73;88.53;98162.25;1088642;54;1094;-84
2023/10/19 01:52:50;;;;;;;;;;;;;;;12.74;88.74;98160.44;1088841;54;968;-80
2023/10/19 01:53:55;;;;;;;;;;;;;;;12.76;88.74;98156.50;1087949;47;1102;-80
2023/10/19 01:59:59;;;;;;;;;;;;;;;12.75;89.04;98164.75;1088236;54;1043;-82
2023/10/19 02:01:07;;;;;;;;;;;;;;;12.73;88.99;98161.44;1088788;47;1143;-83
2023/10/19 02:02:37;;;;;;;;;;;;;;;12.75;89.42;98159.41;1088804;47;897;-83
2023/10/19 02:03:41;;;;;;;;;;;;;;;12.76;89.33;98172.59;1088538;47;988;-80
2023/10/19 02:04:45;;;;;;;;;;;;;;;12.76;89.49;98166.38;1088649;47;976;-82
2023/10/19 02:05:49;;;;;;;;;;;;;;;12.77;89.56;98163.50;1088635;54;1848;-82
2023/10/19 02:07:11;;;;;;;;;;;;;;;12.79;89.62;98165.97;1088755;46;891;-81
2023/10/19 02:08:12;;;;;;;;;;;;;;;12.77;89.12;98162.69;1088104;54;931;-80
2023/10/19 02:09:21;;;;;;;;;;;;;;;12.78;89.17;98164.31;1088392;47;1031;-81
2023/10/19 02:10:22;;;;;;;;;;;;;;;12.72;90.29;98157.94;1088177;54;985;-81
2023/10/19 02:11:28;;;;;;;;;;;;;;;12.75;89.94;98164.75;1087732;54;1103;-81
2023/10/19 02:12:34;;;;;;;;;;;;;;;12.73;89.92;98161.44;1088202;54;1095;-82
2023/10/19 02:13:38;;;;;;;;;;;;;;;12.75;89.53;98164.75;1088385;54;1028;-81
2023/10/19 02:14:41;;;;;;;;;;;;;;;12.76;89.85;98163.69;1088011;47;1001;-81
2023/10/19 02:15:51;;;;;;;;;;;;;;;12.74;90.81;98158.56;1088215;54;1388;-81
2023/10/19 02:17:00;;;;;;;;;;;;;;;12.73;90.66;98148.03;1088294;54;985;-82
2023/10/19 02:18:04;;;;;;;;;;;;;;;12.75;90.46;98148.66;1088245;46;980;-80
2023/10/19 02:19:08;;;;;;;;;;;;;;;12.68;90.89;98151.34;1088196;47;1044;-82
2023/10/19 02:20:17;;;;;;;;;;;;;;;12.65;90.50;98138.34;1088481;54;1162;-82
2023/10/19 02:21:21;;;;;;;;;;;;;;;12.67;90.34;98130.91;1088008;47;953;-80
2023/10/19 02:22:25;;;;;;;;;;;;;;;12.70;90.25;98129.69;1088392;47;1045;-81
2023/10/19 02:23:26;;;;;;;;;;;;;;;12.70;90.00;98124.31;1088615;54;1024;-81
2023/10/19 02:24:36;;;;;;;;;;;;;;;12.70;89.97;98122.47;1088583;54;1060;-83
2023/10/19 02:25:40;;;;;;;;;;;;;;;12.69;89.95;98115.47;1088715;54;1895;-81
2023/10/19 02:26:49;;;;;;;;;;;;;;;12.68;89.62;98115.66;1088630;54;1091;-83
2023/10/19 02:27:49;;;;;;;;;;;;;;;12.67;89.94;98125.56;1088726;54;1100;-81
2023/10/19 02:28:52;;;;;;;;;;;;;;;12.67;90.13;98116.69;1088628;47;1420;-82
2023/10/19 02:29:56;;;;;;;;;;;;;;;12.66;89.92;98113.19;1088591;47;1126;-82
2023/10/19 02:31:03;;;;;;;;;;;;;;;12.68;89.97;98110.28;1088761;46;1008;-82
2023/10/19 02:58:13;;;;;;;;;;;;;;;12.90;91.18;98052.75;1070813;54;2089;-81
2023/10/19 03:00:41;;;;;;;;;;;;;;;12.95;91.58;98050.25;1088628;47;884;-82
2023/10/19 03:02:07;;;;;;;;;;;;;;;12.94;91.97;98056.66;1088718;47;899;-84
2023/10/19 03:03:08;;;;;;;;;;;;;;;12.96;92.26;98043.03;1088715;54;951;-83
2023/10/19 03:04:15;;;;;;;;;;;;;;;12.98;92.03;98046.34;1088776;47;887;-84
2023/10/19 03:05:25;;;;;;;;;;;;;;;13.03;91.69;98045.72;1088710;54;1892;-83
2023/10/19 03:06:35;;;;;;;;;;;;;;;13.06;91.54;98043.44;1088681;47;964;-83
2023/10/19 03:07:44;;;;;;;;;;;;;;;13.08;91.50;98040.53;1088518;54;922;-83
2023/10/19 03:08:47;;;;;;;;;;;;;;;13.11;91.33;98042.81;1088805;54;988;-81
2023/10/19 03:09:53;;;;;;;;;;;;;;;13.09;92.33;98043.00;1088604;54;962;-80
2023/10/19 03:11:03;;;;;;;;;;;;;;;13.06;93.20;98042.59;1088597;54;928;-82
2023/10/19 03:12:14;;;;;;;;;;;;;;;13.01;94.86;98034.38;1088506;54;947;-82
2023/10/19 03:13:18;;;;;;;;;;;;;;;13.02;94.37;98034.16;1088513;54;900;-82
2023/10/19 03:24:59;;;;;;;;;;;;;;;13.07;91.98;98045.09;1087705;54;1157;-80
2023/10/19 03:27:18;;;;;;;;;;;;;;;13.04;92.45;98042.81;1088005;47;977;-80
2023/10/19 03:28:19;;;;;;;;;;;;;;;13.06;92.50;98047.97;1087989;54;979;-80
2023/10/19 03:29:25;;;;;;;;;;;;;;;13.06;92.12;98040.75;1087783;47;990;-80
2023/10/19 03:30:26;;;;;;;;;;;;;;;13.09;92.03;98047.56;1087805;47;911;-80
2023/10/19 03:31:32;;;;;;;;;;;;;;;13.05;92.15;98038.25;1088035;47;964;-80
2023/10/19 03:32:35;;;;;;;;;;;;;;;13.02;92.99;98036.03;1087967;47;1002;-80
2023/10/19 03:33:36;;;;;;;;;;;;;;;13.05;92.60;98035.59;1088137;46;944;-79
2023/10/19 03:34:43;;;;;;;;;;;;;;;13.07;92.50;98030.84;1088346;54;1039;-80
2023/10/19 03:35:52;;;;;;;;;;;;;;;12.96;94.74;98035.00;1088152;54;1394;-80
2023/10/19 03:36:55;;;;;;;;;;;;;;;12.97;94.80;98028.59;1088291;54;922;-80
2023/10/19 03:38:00;;;;;;;;;;;;;;;13.00;93.85;98027.34;1088611;54;876;-79
2023/10/19 03:39:11;;;;;;;;;;;;;;;13.00;93.82;98030.03;1088421;47;1119;-80
2023/10/19 03:40:20;;;;;;;;;;;;;;;13.00;93.83;98033.53;1088310;46;975;-80
2023/10/19 03:41:26;;;;;;;;;;;;;;;13.03;93.26;98037.69;1088321;47;988;-80
2023/10/19 03:42:32;;;;;;;;;;;;;;;13.06;93.11;98038.06;1088303;54;1027;-79
2023/10/19 03:43:36;;;;;;;;;;;;;;;13.09;92.51;98036.81;1088295;54;1009;-79
2023/10/19 03:44:44;;;;;;;;;;;;;;;13.10;93.14;98033.09;1088405;54;1012;-81
2023/10/19 03:45:52;;;;;;;;;;;;;;;13.07;93.62;98039.72;1088299;54;1848;-81
2023/10/19 03:46:57;;;;;;;;;;;;;;;13.10;93.23;98030.44;1088231;54;933;-80
2023/10/19 03:48:06;;;;;;;;;;;;;;;13.09;93.39;98029.59;1088401;54;946;-80
2023/10/19 03:49:11;;;;;;;;;;;;;;;13.13;93.34;98031.84;1088284;54;970;-79
2023/10/19 03:50:20;;;;;;;;;;;;;;;13.15;92.83;98035.97;1088612;46;892;-79
2023/10/19 03:51:26;;;;;;;;;;;;;;;13.15;92.45;98025.25;1088349;47;1054;-80
2023/10/19 03:52:37;;;;;;;;;;;;;;;13.17;92.55;98033.91;1088378;54;1168;-80
2023/10/19 03:53:43;;;;;;;;;;;;;;;13.20;92.08;98028.13;1088347;54;1027;-80
2023/10/19 03:54:44;;;;;;;;;;;;;;;13.21;92.05;98023.56;1088321;54;997;-80
2023/10/19 03:55:52;;;;;;;;;;;;;;;13.21;91.98;98018.22;1088025;54;1224;-80
2023/10/19 03:56:53;;;;;;;;;;;;;;;13.23;92.08;98026.88;1087820;54;887;-79
2023/10/19 03:57:57;;;;;;;;;;;;;;;13.25;92.00;98020.25;1087939;47;1095;-79
2023/10/19 03:58:58;;;;;;;;;;;;;;;13.25;92.03;98020.25;1087823;47;913;-80
2023/10/19 04:00:03;;;;;;;;;;;;;;;13.24;92.11;98018.59;1087939;47;952;-80
2023/10/19 04:01:05;;;;;;;;;;;;;;;13.20;92.80;98017.41;1087633;47;877;-79
2023/10/19 04:02:13;;;;;;;;;;;;;;;13.21;92.75;98019.06;1087923;54;1363;-79
2023/10/19 04:03:13;;;;;;;;;;;;;;;13.24;92.49;98015.13;1088012;54;960;-80
2023/10/19 04:04:16;;;;;;;;;;;;;;;13.25;91.93;98019.44;1087958;54;1138;-78
2023/10/19 04:05:23;;;;;;;;;;;;;;;13.27;92.24;98022.75;1087789;47;968;-79
2023/10/19 04:06:23;;;;;;;;;;;;;;;13.29;91.95;98025.22;1088001;47;1862;-80
2023/10/19 04:07:30;;;;;;;;;;;;;;;13.24;92.46;98018.59;1087657;47;1024;-79
2023/10/19 04:08:37;;;;;;;;;;;;;;;13.26;92.86;98008.50;1087619;47;1024;-80
2023/10/19 04:09:56;;;;;;;;;;;;;;;13.20;93.30;98012.03;1087643;54;1083;-81
2023/10/19 04:11:08;;;;;;;;;;;;;;;13.19;93.38;98010.38;1087610;54;1375;-80
2023/10/19 04:12:12;;;;;;;;;;;;;;;13.09;94.32;98005.44;1087269;47;1031;-79
2023/10/19 04:13:15;;;;;;;;;;;;;;;13.06;94.65;98015.78;1087618;54;937;-79
2023/10/19 04:14:20;;;;;;;;;;;;;;;13.07;94.72;98017.44;1087457;54;1368;-79
2023/10/19 04:15:22;;;;;;;;;;;;;;;13.04;95.77;98020.53;1087747;47;989;-80
2023/10/19 04:16:25;;;;;;;;;;;;;;;13.00;96.27;98011.25;1087758;54;1459;-80
2023/10/19 04:17:27;;;;;;;;;;;;;;;12.90;96.50;98012.53;1087661;54;1642;-79
2023/10/19 04:18:30;;;;;;;;;;;;;;;12.97;95.76;98014.34;1087373;47;1083;-80
2023/10/19 04:19:32;;;;;;;;;;;;;;;12.87;96.81;98012.94;1087641;54;1159;-80
2023/10/19 04:20:58;;;;;;;;;;;;;;;12.89;95.96;98013.56;1087569;47;1064;-79
2023/10/19 04:21:59;;;;;;;;;;;;;;;12.91;95.82;98011.50;1087654;54;1077;-80
2023/10/19 04:23:06;;;;;;;;;;;;;;;12.86;96.17;98008.59;1087177;47;1023;-79
2023/10/19 04:24:07;;;;;;;;;;;;;;;12.87;95.99;98010.25;1087400;47;1032;-81
2023/10/19 04:25:12;;;;;;;;;;;;;;;12.90;95.78;98000.94;1087148;54;1110;-80
2023/10/19 04:26:18;;;;;;;;;;;;;;;12.92;95.48;98010.47;1087516;46;1856;-80
2023/10/19 04:27:26;;;;;;;;;;;;;;;13.00;95.03;98000.53;1087490;54;1165;-80
2023/10/19 04:28:31;;;;;;;;;;;;;;;13.02;94.70;98001.97;1087678;54;1028;-80
2023/10/19 04:29:40;;;;;;;;;;;;;;;13.07;94.38;98004.00;1087640;54;1020;-81
2023/10/19 04:30:41;;;;;;;;;;;;;;;13.09;94.66;98004.63;1087558;54;1020;-80
2023/10/19 04:31:49;;;;;;;;;;;;;;;13.05;94.38;98001.56;1087703;54;1082;-80
2023/10/19 04:32:50;;;;;;;;;;;;;;;13.03;94.27;97995.56;1087436;54;1141;-81
2023/10/19 04:33:54;;;;;;;;;;;;;;;13.01;94.65;97991.47;1087561;54;1099;-80
2023/10/19 04:34:55;;;;;;;;;;;;;;;13.03;94.09;97998.25;1087464;47;1023;-81
2023/10/19 04:35:55;;;;;;;;;;;;;;;13.02;94.40;97998.47;1087291;54;1375;-80
2023/10/19 04:36:59;;;;;;;;;;;;;;;12.99;94.66;97993.53;1087366;47;1677;-81
2023/10/19 04:38:01;;;;;;;;;;;;;;;13.02;94.70;97990.44;1087511;54;1066;-80
2023/10/19 04:39:04;;;;;;;;;;;;;;;13.00;94.44;97987.94;1087343;47;1036;-81
2023/10/19 04:40:07;;;;;;;;;;;;;;;12.97;94.38;97984.84;1087637;54;1414;-81
2023/10/19 04:41:08;;;;;;;;;;;;;;;12.94;94.53;97981.56;1087735;54;1087;-81
2023/10/19 04:42:14;;;;;;;;;;;;;;;12.90;94.48;97976.81;1087505;47;1084;-80
2023/10/19 04:43:16;;;;;;;;;;;;;;;12.93;94.30;97982.63;1087813;47;1072;-81
2023/10/19 04:44:21;;;;;;;;;;;;;;;12.91;94.32;97983.84;1087847;54;875;-81
2023/10/19 04:45:23;;;;;;;;;;;;;;;12.87;94.54;97978.06;1087832;47;1071;-81
2023/10/19 04:46:46;;;;;;;;;;;;;;;12.88;94.66;97986.97;1088026;46;1846;-80
2023/10/19 04:47:51;;;;;;;;;;;;;;;12.79;94.80;97983.66;1087939;54;1307;-80
2023/10/19 04:48:55;;;;;;;;;;;;;;;12.71;95.43;97987.38;1087905;54;1118;-80
2023/10/19 04:49:58;;;;;;;;;;;;;;;12.70;95.23;97991.13;1087811;46;1100;-80
2023/10/19 04:50:59;;;;;;;;;;;;;;;12.72;94.84;97988.22;1087688;47;973;-80
2023/10/19 04:52:04;;;;;;;;;;;;;;;12.75;94.71;97994.00;1088002;54;1036;-80
2023/10/19 04:53:05;;;;;;;;;;;;;;;12.75;94.61;97985.94;1087841;54;1091;-81
2023/10/19 04:54:08;;;;;;;;;;;;;;;12.79;94.32;97984.50;1088082;54;1162;-80
2023/10/19 04:55:09;;;;;;;;;;;;;;;12.78;94.18;97980.16;1088035;54;1405;-80
2023/10/19 04:56:15;;;;;;;;;;;;;;;12.78;94.81;97985.53;1087784;47;1228;-80
2023/10/19 04:57:18;;;;;;;;;;;;;;;12.77;94.18;97977.69;1088053;47;1074;-80
2023/10/19 04:58:19;;;;;;;;;;;;;;;12.79;93.86;97981.81;1087865;47;980;-81
2023/10/19 04:59:23;;;;;;;;;;;;;;;12.84;93.73;97980.34;1087842;54;1473;-80
2023/10/19 05:00:25;;;;;;;;;;;;;;;12.86;93.23;97991.69;1087955;54;1128;-80
2023/10/19 05:01:29;;;;;;;;;;;;;;;12.87;93.37;97986.13;1087868;47;1028;-80
2023/10/19 05:02:36;;;;;;;;;;;;;;;12.87;93.04;97980.75;1087867;54;1216;-81
2023/10/19 05:03:42;;;;;;;;;;;;;;;12.89;92.99;97989.41;1087850;54;1138;-80
2023/10/19 05:04:43;;;;;;;;;;;;;;;12.91;92.84;97984.69;1087783;47;1047;-81
2023/10/19 05:05:45;;;;;;;;;;;;;;;12.90;92.68;97979.50;1087824;47;1337;-80
2023/10/19 05:06:49;;;;;;;;;;;;;;;12.90;92.53;97980.34;1087766;46;1879;-79
2023/10/19 05:07:50;;;;;;;;;;;;;;;12.85;93.05;97982.81;1087793;54;1115;-80
2023/10/19 05:08:53;;;;;;;;;;;;;;;12.87;92.83;97990.66;1087981;54;1356;-80
2023/10/19 05:09:54;;;;;;;;;;;;;;;12.86;92.73;97984.47;1087875;54;1052;-80
2023/10/19 05:10:59;;;;;;;;;;;;;;;12.88;92.50;97979.72;1087992;54;1364;-81
2023/10/19 05:12:02;;;;;;;;;;;;;;;12.88;92.30;97971.69;1087758;54;1111;-81
2023/10/19 05:13:08;;;;;;;;;;;;;;;12.90;92.33;97968.78;1087837;47;1088;-80
2023/10/19 05:14:09;;;;;;;;;;;;;;;12.86;92.06;97971.06;1087867;54;1028;-80
2023/10/19 05:15:13;;;;;;;;;;;;;;;12.88;92.37;97971.69;1087939;47;1100;-80
2023/10/19 05:16:15;;;;;;;;;;;;;;;12.88;91.99;97969.00;1087800;54;1380;-80
2023/10/19 05:17:21;;;;;;;;;;;;;;;12.88;91.97;97976.22;1087975;47;972;-81
2023/10/19 05:18:27;;;;;;;;;;;;;;;12.88;91.70;97971.69;1088216;54;1125;-80
2023/10/19 05:19:30;;;;;;;;;;;;;;;12.90;91.92;97966.09;1087876;54;1047;-80
2023/10/19 05:20:32;;;;;;;;;;;;;;;12.88;91.80;97977.03;1087889;54;1066;-79
2023/10/19 05:21:35;;;;;;;;;;;;;;;12.87;91.78;97969.22;1087795;54;1127;-80
2023/10/19 05:22:36;;;;;;;;;;;;;;;12.85;92.11;97963.22;1087866;54;1129;-80
2023/10/19 05:23:39;;;;;;;;;;;;;;;12.85;92.47;97966.72;1087504;54;944;-80
2023/10/19 05:24:40;;;;;;;;;;;;;;;12.86;91.96;97971.06;1087579;54;1119;-79
2023/10/19 05:25:44;;;;;;;;;;;;;;;12.86;91.70;97970.25;1086999;47;1364;-80
2023/10/19 05:26:48;;;;;;;;;;;;;;;12.82;92.06;97963.66;1087686;47;1893;-80
2023/10/19 05:27:51;;;;;;;;;;;;;;;12.81;92.40;97976.25;1087519;47;1382;-79
2023/10/19 05:28:54;;;;;;;;;;;;;;;12.82;92.50;97977.06;1087611;46;1023;-80
2023/10/19 05:29:57;;;;;;;;;;;;;;;12.83;92.43;97971.50;1087468;47;943;-80
2023/10/19 05:30:59;;;;;;;;;;;;;;;12.78;92.11;97973.97;1087187;54;1056;-80
2023/10/19 05:32:03;;;;;;;;;;;;;;;12.78;92.15;97977.50;1087288;47;978;-81
2023/10/19 05:33:05;;;;;;;;;;;;;;;12.79;92.35;97983.66;1087534;54;1013;-80
2023/10/19 05:34:09;;;;;;;;;;;;;;;12.79;92.03;97978.31;1087312;54;1336;-80
2023/10/19 05:35:13;;;;;;;;;;;;;;;12.76;92.31;97976.03;1087483;47;929;-79
2023/10/19 05:36:16;;;;;;;;;;;;;;;12.75;92.26;97974.41;1087633;54;1207;-80
2023/10/19 05:37:17;;;;;;;;;;;;;;;12.73;92.63;97976.47;1087449;54;988;-79
2023/10/19 05:38:22;;;;;;;;;;;;;;;12.72;92.79;97982.84;1087319;47;878;-79
2023/10/19 05:39:27;;;;;;;;;;;;;;;12.75;92.70;97987.81;1087455;47;938;-79
2023/10/19 05:40:31;;;;;;;;;;;;;;;12.75;92.26;97983.25;1087671;47;1036;-80
2023/10/19 05:41:33;;;;;;;;;;;;;;;12.74;92.26;97986.16;1087531;54;987;-79
2023/10/19 05:42:34;;;;;;;;;;;;;;;12.74;92.16;97986.16;1087414;47;1048;-79
2023/10/19 05:43:39;;;;;;;;;;;;;;;12.74;92.36;97983.47;1087613;54;1052;-80
2023/10/19 05:44:43;;;;;;;;;;;;;;;12.74;91.77;97992.34;1087537;54;1099;-80
2023/10/19 05:45:49;;;;;;;;;;;;;;;12.75;92.03;97985.13;1087488;54;1270;-80
2023/10/19 05:46:54;;;;;;;;;;;;;;;12.77;91.94;97986.56;1087618;54;1852;-79
2023/10/19 05:47:55;;;;;;;;;;;;;;;12.74;91.75;97988.84;1087445;47;910;-80
2023/10/19 05:49:01;;;;;;;;;;;;;;;12.70;92.88;97993.81;1087486;54;1174;-80
2023/10/19 05:50:04;;;;;;;;;;;;;;;12.72;92.97;97988.22;1087362;54;991;-80
2023/10/19 05:51:09;;;;;;;;;;;;;;;12.72;92.33;97993.59;1087560;54;1043;-79
2023/10/19 05:52:10;;;;;;;;;;;;;;;12.73;92.36;97989.88;1087764;54;1015;-79
2023/10/19 05:53:18;;;;;;;;;;;;;;;12.73;92.00;97992.56;1087489;54;1099;-80
2023/10/19 05:54:24;;;;;;;;;;;;;;;12.73;92.37;97995.22;1087638;47;895;-78
2023/10/19 05:55:31;;;;;;;;;;;;;;;12.74;92.30;97992.34;1087515;54;1355;-79
2023/10/19 05:56:34;;;;;;;;;;;;;;;12.75;92.19;97998.53;1087644;47;1257;-81
2023/10/19 05:57:49;;;;;;;;;;;;;;;12.72;92.25;97991.72;1087478;54;1084;-80
2023/10/19 05:58:53;;;;;;;;;;;;;;;12.74;92.56;97986.97;1087622;47;933;-80
2023/10/19 05:59:59;;;;;;;;;;;;;;;12.75;92.31;97991.31;1087878;54;1047;-80
2023/10/19 06:01:03;;;;;;;;;;;;;;;12.76;91.84;97986.75;1087951;54;1373;-79
2023/10/19 06:02:07;;;;;;;;;;;;;;;12.76;92.11;97987.59;1087976;54;927;-79
2023/10/19 06:03:10;;;;;;;;;;;;;;;12.72;92.05;97986.34;1087805;54;1007;-80
2023/10/19 06:04:12;;;;;;;;;;;;;;;12.69;92.87;97984.09;1088191;54;954;-80
2023/10/19 06:05:15;;;;;;;;;;;;;;;12.72;92.45;97982.84;1088512;54;1055;-80
2023/10/19 06:06:19;;;;;;;;;;;;;;;12.73;92.29;97995.22;1088475;54;1850;-79
2023/10/19 06:07:21;;;;;;;;;;;;;;;12.71;91.93;97995.41;1088389;54;1009;-80
2023/10/19 06:08:24;;;;;;;;;;;;;;;12.68;92.03;97995.03;1088263;54;950;-80
2023/10/19 06:09:29;;;;;;;;;;;;;;;12.64;92.39;97992.78;1088246;47;1099;-81
2023/10/19 06:10:33;;;;;;;;;;;;;;;12.63;93.12;97993.81;1087947;47;880;-81
2023/10/19 06:11:37;;;;;;;;;;;;;;;12.68;92.79;98003.06;1087600;47;948;-80
2023/10/19 06:12:41;;;;;;;;;;;;;;;12.68;92.42;97993.19;1087570;54;1007;-81
2023/10/19 06:13:43;;;;;;;;;;;;;;;12.70;92.53;97993.81;1087590;54;981;-81
2023/10/19 06:14:46;;;;;;;;;;;;;;;12.72;92.36;97998.94;1087455;47;1020;-82
2023/10/19 06:15:51;;;;;;;;;;;;;;;12.73;92.32;97989.88;1087577;54;1356;-81
2023/10/19 06:16:57;;;;;;;;;;;;;;;12.73;92.68;97998.72;1087611;54;1003;-79
2023/10/19 06:17:58;;;;;;;;;;;;;;;12.74;92.45;97999.56;1087621;54;1098;-79
2023/10/19 06:19:03;;;;;;;;;;;;;;;12.72;92.27;98009.66;1087401;54;989;-78
2023/10/19 06:20:05;;;;;;;;;;;;;;;12.72;92.36;98004.31;1087670;54;1126;-79
2023/10/19 06:21:09;;;;;;;;;;;;;;;12.69;92.34;98002.88;1087549;54;960;-79
2023/10/19 06:22:10;;;;;;;;;;;;;;;12.69;92.57;98010.06;1087538;47;1027;-78
2023/10/19 06:23:14;;;;;;;;;;;;;;;12.71;92.64;98016.06;1087449;54;1442;-78
2023/10/19 06:24:15;;;;;;;;;;;;;;;12.72;92.53;98004.31;1087441;54;1402;-79
2023/10/19 06:25:17;;;;;;;;;;;;;;;12.67;93.12;98002.25;1087520;47;958;-81
2023/10/19 06:26:21;;;;;;;;;;;;;;;12.59;94.05;98000.59;1087015;47;1858;-79
2023/10/19 06:27:23;;;;;;;;;;;;;;;12.60;93.36;98002.25;1087500;54;994;-79
2023/10/19 06:28:28;;;;;;;;;;;;;;;12.59;93.48;98008.63;1087574;47;952;-79
2023/10/19 06:29:29;;;;;;;;;;;;;;;12.60;93.01;98012.97;1087477;54;909;-78
2023/10/19 06:30:32;;;;;;;;;;;;;;;12.56;93.63;98006.41;1087710;47;953;-81
2023/10/19 06:31:36;;;;;;;;;;;;;;;12.57;94.06;98007.22;1087520;54;973;-79
2023/10/19 06:32:39;;;;;;;;;;;;;;;12.55;93.79;98007.44;1087590;54;1138;-80
2023/10/19 06:33:41;;;;;;;;;;;;;;;12.59;93.45;98003.28;1087656;54;987;-79
2023/10/19 06:34:44;;;;;;;;;;;;;;;12.57;93.47;98008.03;1087658;54;1131;-79
2023/10/19 06:35:45;;;;;;;;;;;;;;;12.60;93.60;98007.63;1087672;47;1363;-80
2023/10/19 06:36:54;;;;;;;;;;;;;;;12.59;93.74;97997.09;1087691;54;1139;-79
2023/10/19 06:37:55;;;;;;;;;;;;;;;12.62;93.91;98004.72;1087659;54;1067;-80
2023/10/19 06:38:58;;;;;;;;;;;;;;;12.68;93.44;98003.06;1087679;54;935;-79
2023/10/19 06:40:02;;;;;;;;;;;;;;;12.68;93.40;97997.69;1087678;54;1229;-79
2023/10/19 06:41:12;;;;;;;;;;;;;;;12.67;93.62;97991.53;1087509;54;1036;-79
2023/10/19 06:42:13;;;;;;;;;;;;;;;12.69;93.96;97997.50;1087817;54;1002;-80
2023/10/19 06:43:17;;;;;;;;;;;;;;;12.74;93.86;97988.84;1088014;46;1099;-79
2023/10/19 06:44:22;;;;;;;;;;;;;;;12.71;93.95;97997.28;1087926;47;1174;-79
2023/10/19 06:45:29;;;;;;;;;;;;;;;12.71;94.04;97991.94;1088138;54;1071;-81
2023/10/19 06:46:31;;;;;;;;;;;;;;;12.73;93.30;97989.88;1088243;47;1864;-79
2023/10/19 06:47:38;;;;;;;;;;;;;;;12.70;93.82;97988.44;1088156;54;1000;-78
2023/10/19 06:48:42;;;;;;;;;;;;;;;12.75;93.39;97995.84;1088191;47;992;-80
2023/10/19 06:49:45;;;;;;;;;;;;;;;12.69;92.79;97989.47;1088543;54;1111;-80
2023/10/19 06:50:46;;;;;;;;;;;;;;;12.74;93.73;97996.88;1088481;54;1102;-79
2023/10/19 06:51:50;;;;;;;;;;;;;;;12.76;92.93;97992.13;1088169;46;1143;-79
2023/10/19 06:52:56;;;;;;;;;;;;;;;12.81;92.71;97989.66;1088235;54;1002;-79
2023/10/19 06:54:02;;;;;;;;;;;;;;;12.83;92.48;97992.94;1088194;54;1311;-78
2023/10/19 06:55:13;;;;;;;;;;;;;;;12.85;92.57;97990.03;1088213;54;943;-81
2023/10/19 06:56:18;;;;;;;;;;;;;;;12.88;92.05;97987.75;1088161;47;1320;-79
2023/10/19 06:57:19;;;;;;;;;;;;;;;12.85;91.55;97988.19;1088012;54;1043;-79
2023/10/19 06:58:26;;;;;;;;;;;;;;;12.88;92.22;97993.13;1088449;54;1141;-79
2023/10/19 06:59:29;;;;;;;;;;;;;;;12.90;92.12;97996.44;1087811;54;992;-80
2023/10/19 07:00:33;;;;;;;;;;;;;;;12.92;91.82;97994.38;1087913;54;987;-80
2023/10/19 07:01:36;;;;;;;;;;;;;;;12.90;91.83;97985.72;1087844;47;996;-79
2023/10/19 07:02:42;;;;;;;;;;;;;;;12.84;91.56;97991.91;1087794;54;1070;-79
2023/10/19 07:03:43;;;;;;;;;;;;;;;12.79;92.90;97981.81;1087887;54;1107;-79
2023/10/19 07:04:47;;;;;;;;;;;;;;;12.85;92.80;97982.81;1087703;47;1063;-79
2023/10/19 07:05:49;;;;;;;;;;;;;;;12.88;92.28;97977.03;1087615;54;1366;-79
2023/10/19 07:06:53;;;;;;;;;;;;;;;12.90;92.05;97972.28;1087755;54;1868;-79
2023/10/19 07:07:56;;;;;;;;;;;;;;;12.94;91.83;97972.69;1087660;47;980;-80
2023/10/19 07:08:59;;;;;;;;;;;;;;;12.95;91.39;97971.66;1087783;54;949;-78
2023/10/19 07:10:00;;;;;;;;;;;;;;;12.97;91.42;97972.28;1087847;54;1044;-79
2023/10/19 07:11:04;;;;;;;;;;;;;;;13.00;91.42;97968.34;1087700;54;926;-80
2023/10/19 07:12:08;;;;;;;;;;;;;;;13.03;91.28;97974.13;1087903;54;1009;-80
2023/10/19 07:13:11;;;;;;;;;;;;;;;13.05;90.88;97974.72;1087923;54;918;-78
2023/10/19 07:14:12;;;;;;;;;;;;;;;13.05;90.75;97973.88;1087669;46;1128;-80
2023/10/19 07:15:18;;;;;;;;;;;;;;;13.10;91.24;97979.47;1087943;54;1044;-80
2023/10/19 07:16:20;;;;;;;;;;;;;;;13.11;91.24;97975.75;1087664;54;1220;-79
2023/10/19 07:17:23;;;;;;;;;;;;;;;13.14;91.13;97975.31;1087857;54;1024;-80
2023/10/19 07:18:28;;;;;;;;;;;;;;;13.18;90.63;97979.22;1087880;54;1126;-79
2023/10/19 07:19:31;;;;;;;;;;;;;;;13.21;90.74;97981.50;1087875;47;1103;-80
2023/10/19 07:20:32;;;;;;;;;;;;;;;13.22;90.69;97984.97;1088244;54;981;-81
2023/10/19 07:21:42;;;;;;;;;;;;;;;13.23;90.56;97981.28;1088516;47;1076;-80
2023/10/19 07:22:44;;;;;;;;;;;;;;;13.25;90.36;97982.69;1088154;46;1178;-80
2023/10/19 07:23:52;;;;;;;;;;;;;;;13.27;90.14;97980.63;1087796;54;931;-79
2023/10/19 07:24:54;;;;;;;;;;;;;;;13.31;90.21;97982.91;1088102;54;1016;-80
2023/10/19 07:26:03;;;;;;;;;;;;;;;13.32;90.11;97980.00;1087951;54;1437;-80
2023/10/19 07:27:04;;;;;;;;;;;;;;;13.35;89.74;97976.06;1087242;47;1843;-80
2023/10/19 07:28:09;;;;;;;;;;;;;;;13.38;89.65;97973.75;1088057;54;1019;-80
2023/10/19 07:29:10;;;;;;;;;;;;;;;13.38;89.23;97970.28;1087956;54;1373;-79
2023/10/19 07:30:16;;;;;;;;;;;;;;;13.41;89.24;97977.94;1087957;54;1024;-81
2023/10/19 07:31:17;;;;;;;;;;;;;;;13.40;88.79;97969.03;1088150;54;1020;-81
2023/10/19 07:32:21;;;;;;;;;;;;;;;13.40;89.10;97968.22;1087950;54;1397;-81
2023/10/19 07:33:22;;;;;;;;;;;;;;;13.40;89.58;97973.59;1088004;54;1071;-81
2023/10/19 07:34:28;;;;;;;;;;;;;;;13.40;89.47;97973.59;1087948;54;1083;-80
2023/10/19 07:35:30;;;;;;;;;;;;;;;13.41;89.77;97975.25;1088024;54;1393;-81
2023/10/19 07:36:31;;;;;;;;;;;;;;;13.46;89.76;97977.28;1087992;54;975;-82
2023/10/19 07:37:36;;;;;;;;;;;;;;;13.48;89.65;97976.03;1088035;54;1091;-81
2023/10/19 07:38:38;;;;;;;;;;;;;;;13.46;89.01;97983.47;1088076;54;1100;-82
2023/10/19 07:39:42;;;;;;;;;;;;;;;13.45;88.94;97987.19;1088026;54;981;-82
2023/10/19 07:40:43;;;;;;;;;;;;;;;13.48;88.80;97980.56;1087762;54;1632;-81
2023/10/19 07:41:46;;;;;;;;;;;;;;;13.51;89.01;97980.94;1087988;47;852;-81
2023/10/19 07:42:53;;;;;;;;;;;;;;;13.50;88.92;97978.50;1088132;54;969;-81
2023/10/19 07:43:59;;;;;;;;;;;;;;;13.53;89.12;97984.25;1087905;54;1087;-81
2023/10/19 07:45:00;;;;;;;;;;;;;;;13.55;88.91;97982.19;1088048;54;1103;-82
2023/10/19 07:46:05;;;;;;;;;;;;;;;13.56;88.63;97983.84;1088000;47;1502;-81
2023/10/19 07:47:15;;;;;;;;;;;;;;;13.58;88.55;97986.28;1087947;54;1852;-83
2023/10/19 07:48:18;;;;;;;;;;;;;;;13.60;88.52;97983.41;1088163;46;998;-81
2023/10/19 07:49:21;;;;;;;;;;;;;;;13.63;88.45;97985.66;1087958;47;1072;-81
2023/10/19 07:50:35;;;;;;;;;;;;;;;13.63;88.79;97983.81;1088072;54;1378;-81
2023/10/19 07:51:36;;;;;;;;;;;;;;;13.64;88.59;97984.63;1088255;54;1055;-81
2023/10/19 07:52:40;;;;;;;;;;;;;;;13.66;88.83;97987.91;1088261;54;1015;-80
2023/10/19 07:53:47;;;;;;;;;;;;;;;13.67;88.78;97986.88;1088078;54;1058;-80
2023/10/19 07:54:53;;;;;;;;;;;;;;;13.65;88.58;97988.94;1088431;54;1009;-81
2023/10/19 07:55:59;;;;;;;;;;;;;;;13.66;88.99;97982.53;1088018;54;1376;-81
2023/10/19 07:57:07;;;;;;;;;;;;;;;13.65;89.03;97976.34;1088249;54;1063;-81
2023/10/19 07:58:07;;;;;;;;;;;;;;;13.55;89.08;97973.31;1088499;54;995;-81
2023/10/19 07:59:19;;;;;;;;;;;;;;;13.52;89.64;97976.44;1087685;47;952;-82
2023/10/19 08:00:22;;;;;;;;;;;;;;;13.56;89.48;97978.47;1088484;54;994;-82
2023/10/19 08:01:28;;;;;;;;;;;;;;;13.62;89.77;97975.94;1088116;46;906;-82
2023/10/19 08:02:30;;;;;;;;;;;;;;;13.62;89.16;97971.41;1088221;54;1130;-82
2023/10/19 08:03:33;;;;;;;;;;;;;;;13.61;88.85;97964.41;1088288;47;1026;-83
2023/10/19 08:04:36;;;;;;;;;;;;;;;13.59;89.57;97962.97;1088095;54;986;-80
2023/10/19 08:05:45;;;;;;;;;;;;;;;13.65;89.32;97959.41;1088245;54;1424;-82